createdAt,value
2019-06-27T00:36:11.714Z,16.8
2019-06-27T00:37:02.036Z,16.9
2019-06-27T00:37:52.096Z,16.8
2019-06-27T00:38:41.886Z,16.8
2019-06-27T00:39:32.233Z,16.9
2019-06-27T00:40:22.019Z,16.8
2019-06-27T00:57:16.478Z,16.8
2019-06-27T01:01:14.345Z,16.7
2019-06-27T01:02:54.447Z,16.7
2019-06-27T01:03:44.230Z,16.6
2019-06-27T01:05:24.293Z,16.6
2019-06-27T01:06:14.384Z,16.6
2019-06-27T01:07:04.450Z,16.6
2019-06-27T01:07:54.757Z,16.6
2019-06-27T01:08:44.820Z,16.6
2019-06-27T01:09:34.610Z,16.6
2019-06-27T01:10:24.987Z,16.6
2019-06-27T01:11:15.019Z,16.6
2019-06-27T01:12:04.802Z,16.6
2019-06-27T01:12:54.919Z,16.6
2019-06-27T01:13:45.179Z,16.6
2019-06-27T01:14:35.258Z,16.6
2019-06-27T01:15:25.306Z,16.5
2019-06-27T01:16:15.404Z,16.5
2019-06-27T01:17:05.153Z,16.5
2019-06-27T01:17:55.216Z,16.5
2019-06-27T01:18:45.331Z,16.5
2019-06-27T01:19:35.326Z,16.5
2019-06-27T01:20:25.378Z,16.4
2019-06-27T01:21:15.448Z,16.5
2019-06-27T01:22:05.777Z,16.4
2019-06-27T01:22:55.854Z,16.4
2019-06-27T01:23:46.617Z,16.4
2019-06-27T01:24:35.953Z,16.4
2019-06-27T01:25:25.746Z,16.4
2019-06-27T01:26:16.114Z,16.4
2019-06-27T01:27:05.894Z,16.4
2019-06-27T01:27:56.223Z,16.4
2019-06-27T01:28:45.985Z,16.4
2019-06-27T01:29:35.770Z,16.4
2019-06-27T01:30:26.174Z,16.4
2019-06-27T01:31:16.463Z,16.4
2019-06-27T01:32:05.984Z,16.3
2019-06-27T01:32:56.290Z,16.3
2019-06-27T01:33:46.362Z,16.3
2019-06-27T01:34:36.690Z,16.3
2019-06-27T01:35:26.478Z,16.3
2019-06-27T01:36:16.818Z,16.3
2019-06-27T01:37:06.660Z,16.3
2019-06-27T01:37:56.948Z,16.3
2019-06-27T01:38:47.023Z,16.3
2019-06-27T01:39:37.060Z,16.2
2019-06-27T01:40:27.125Z,16.2
2019-06-27T01:41:17.194Z,16.2
2019-06-27T01:42:07.248Z,16.2
2019-06-27T01:42:57.021Z,16.2
2019-06-27T01:43:47.375Z,16.2
2019-06-27T01:44:37.273Z,16.1
2019-06-27T01:45:27.203Z,16.1
2019-06-27T01:46:17.553Z,16.1
2019-06-27T01:47:07.612Z,16.1
2019-06-27T01:47:57.661Z,16.1
2019-06-27T01:48:47.713Z,16.1
2019-06-27T01:49:37.802Z,16.1
2019-06-27T01:50:27.852Z,16.1
2019-06-27T01:51:17.622Z,16.1
2019-06-27T01:52:07.992Z,16
2019-06-27T01:52:57.778Z,16
2019-06-27T01:53:48.105Z,16
2019-06-27T01:54:38.156Z,16
2019-06-27T01:55:27.947Z,16
2019-06-27T01:56:18.275Z,16
2019-06-27T01:57:08.324Z,15.9
2019-06-27T01:57:58.385Z,15.9
2019-06-27T01:58:48.465Z,15.9
2019-06-27T01:59:38.270Z,15.9
2019-06-27T02:00:28.619Z,15.9
2019-06-27T02:01:18.357Z,15.9
2019-06-27T02:02:08.731Z,15.9
2019-06-27T02:02:58.791Z,15.9
2019-06-27T02:03:48.905Z,15.8
2019-06-27T02:05:28.942Z,15.8
2019-06-27T02:07:59.128Z,15.8
2019-06-27T02:09:39.006Z,15.8
2019-06-27T02:11:19.368Z,15.7
2019-06-27T02:14:39.603Z,15.6
2019-06-27T02:17:59.656Z,15.6
2019-06-27T02:28:06.280Z,15.4
2019-06-27T02:58:31.492Z,15.2
2019-06-27T03:05:58.294Z,15.1
2019-06-27T03:06:48.603Z,15.1
2019-06-27T03:07:38.103Z,15.1
2019-06-27T03:08:28.735Z,15.1
2019-06-27T03:09:18.255Z,15.1
2019-06-27T03:10:08.858Z,15.1
2019-06-27T03:10:58.881Z,15.1
2019-06-27T03:11:48.395Z,15
2019-06-27T03:12:38.736Z,15.1
2019-06-27T03:14:19.113Z,15.1
2019-06-27T03:15:09.205Z,15
2019-06-27T03:15:59.238Z,15.1
2019-06-27T03:16:49.301Z,15.1
2019-06-27T03:17:39.149Z,15.1
2019-06-27T03:18:29.409Z,15
2019-06-27T03:19:19.510Z,15.1
2019-06-27T03:20:09.306Z,15.1
2019-06-27T03:20:59.628Z,15.1
2019-06-27T03:21:49.692Z,15.1
2019-06-27T03:22:39.983Z,15.1
2019-06-27T03:23:29.824Z,15.1
2019-06-27T03:24:19.870Z,15.1
2019-06-27T03:25:10.091Z,15.1
2019-06-27T03:26:00.003Z,15.1
2019-06-27T03:26:50.026Z,15.1
2019-06-27T03:27:40.117Z,15.1
2019-06-27T03:28:55.445Z,15.1
2019-06-27T03:31:50.780Z,15.2
2019-06-27T03:32:40.636Z,15.2
2019-06-27T03:33:30.602Z,15.2
2019-06-27T03:34:20.645Z,15.2
2019-06-27T03:35:10.777Z,15.2
2019-06-27T03:36:00.545Z,15.2
2019-06-27T03:37:40.533Z,15.3
2019-06-27T03:38:30.894Z,15.3
2019-06-27T03:39:20.926Z,15.3
2019-06-27T03:40:10.834Z,15.3
2019-06-27T03:41:00.739Z,15.3
2019-06-27T03:41:51.114Z,15.3
2019-06-27T03:42:40.892Z,15.3
2019-06-27T03:43:30.968Z,15.3
2019-06-27T03:44:21.304Z,15.4
2019-06-27T03:45:17.935Z,15.4
2019-06-27T03:46:51.466Z,15.4
2019-06-27T03:47:41.566Z,15.4
2019-06-27T03:48:31.641Z,15.5
2019-06-27T03:49:21.660Z,15.5
2019-06-27T03:50:11.723Z,15.5
2019-06-27T03:51:01.522Z,15.6
2019-06-27T03:51:51.842Z,15.6
2019-06-27T03:52:41.650Z,15.6
2019-06-27T03:53:32.073Z,15.6
2019-06-27T03:54:21.750Z,15.6
2019-06-27T03:55:11.811Z,15.7
2019-06-27T03:56:02.148Z,15.7
2019-06-27T03:56:52.218Z,15.8
2019-06-27T03:57:47.121Z,15.8
2019-06-27T03:59:22.391Z,15.9
2019-06-27T04:00:12.188Z,15.9
2019-06-27T04:01:02.506Z,15.9
2019-06-27T04:01:52.582Z,15.9
2019-06-27T04:02:42.367Z,16
2019-06-27T04:03:32.706Z,16.1
2019-06-27T04:04:22.523Z,16.1
2019-06-27T04:05:12.824Z,16.1
2019-06-27T04:06:02.919Z,16.1
2019-06-27T04:06:52.934Z,16.2
2019-06-27T04:07:43.041Z,16.3
2019-06-27T04:08:33.516Z,16.3
2019-06-27T04:09:23.132Z,16.3
2019-06-27T04:10:19.213Z,16.3
2019-06-27T04:11:53.269Z,16.4
2019-06-27T04:12:43.385Z,16.4
2019-06-27T04:13:33.591Z,16.5
2019-06-27T04:14:23.463Z,16.5
2019-06-27T04:15:13.526Z,16.6
2019-06-27T04:16:03.588Z,16.6
2019-06-27T04:16:53.688Z,16.6
2019-06-27T04:17:43.731Z,16.6
2019-06-27T04:18:33.492Z,16.7
2019-06-27T04:19:24.030Z,16.7
2019-06-27T04:20:28.573Z,16.8
2019-06-27T04:21:54.073Z,16.8
2019-06-27T04:22:44.081Z,16.8
2019-06-27T04:23:34.124Z,16.9
2019-06-27T04:24:24.203Z,16.9
2019-06-27T04:25:14.285Z,16.9
2019-06-27T04:26:04.351Z,16.9
2019-06-27T04:28:49.151Z,17.1
2019-06-27T04:31:04.675Z,17.1
2019-06-27T04:31:54.745Z,17.1
2019-06-27T04:32:44.890Z,17.2
2019-06-27T04:33:34.842Z,17.2
2019-06-27T04:34:24.937Z,17.3
2019-06-27T04:36:05.081Z,17.3
2019-06-27T04:37:44.624Z,17.4
2019-06-27T04:38:34.927Z,17.4
2019-06-27T04:39:25.508Z,17.5
2019-06-27T04:40:14.578Z,17.6
2019-06-27T04:41:05.454Z,17.6
2019-06-27T04:44:25.741Z,18.2
2019-06-27T04:46:55.981Z,18.6
2019-06-27T05:23:41.927Z,27.5
2019-06-27T05:48:41.881Z,36.7
2019-06-27T05:54:30.679Z,39.4
2019-06-27T05:55:20.740Z,39.8
2019-06-27T05:56:10.640Z,40.1
2019-06-27T05:57:50.967Z,40.9
2019-06-27T05:58:40.986Z,41.4
2019-06-27T05:59:31.107Z,41.7
2019-06-27T06:00:31.087Z,42.1
2019-06-27T06:02:00.937Z,42.9
2019-06-27T06:03:58.167Z,43.8
2019-06-27T06:04:48.227Z,44.2
2019-06-27T06:05:38.275Z,44.6
2019-06-27T06:06:28.329Z,45.6
2019-06-27T06:07:18.659Z,45.7
2019-06-27T06:08:08.200Z,46.1
2019-06-27T06:08:58.778Z,46.1
2019-06-27T06:09:48.344Z,45.9
2019-06-27T06:10:38.928Z,45.5
2019-06-27T06:11:29.013Z,44.6
2019-06-27T07:03:58.164Z,52.5
2019-06-27T07:04:48.630Z,52.7
2019-06-27T07:05:38.246Z,52.9
2019-06-27T07:06:28.832Z,53.1
2019-06-27T07:07:18.699Z,53.2
2019-06-27T07:08:08.758Z,53.3
2019-06-27T07:08:58.528Z,53.4
2019-06-27T07:09:48.564Z,53.6
2019-06-27T07:10:38.616Z,53.8
2019-06-27T07:11:28.665Z,53.9
2019-06-27T07:12:18.211Z,54.1
2019-06-27T07:13:09.055Z,54.4
2019-06-27T07:13:58.581Z,54.6
2019-06-27T07:14:48.933Z,54.8
2019-06-27T07:15:39.250Z,55
2019-06-27T07:16:29.335Z,55.1
2019-06-27T07:17:19.375Z,55.3
2019-06-27T07:18:09.422Z,55.2
2019-06-27T07:18:59.215Z,55
2019-06-27T07:19:49.582Z,54.8
2019-06-27T07:20:39.558Z,54.5
2019-06-27T07:21:29.141Z,54.4
2019-06-27T07:22:19.533Z,54.4
2019-06-27T07:23:09.825Z,54.4
2019-06-27T07:23:59.592Z,54.5
2019-06-27T07:24:49.988Z,54.7
2019-06-27T07:25:39.732Z,54.9
2019-06-27T07:26:30.037Z,55.1
2019-06-27T07:27:19.881Z,55.2
2019-06-27T07:28:09.934Z,55.4
2019-06-27T07:29:00.231Z,55.6
2019-06-27T07:30:40.080Z,55.8
2019-06-27T07:31:30.405Z,55.8
2019-06-27T07:32:20.197Z,55.9
2019-06-27T07:33:12.350Z,55.9
2019-06-27T07:34:50.668Z,56.1
2019-06-27T07:35:40.731Z,56.1
2019-06-27T07:36:30.784Z,56.3
2019-06-27T07:37:20.827Z,56.4
2019-06-27T07:38:10.916Z,56.6
2019-06-27T07:39:01.131Z,56.6
2019-06-27T07:41:31.122Z,57.1
2019-06-27T07:42:20.747Z,57.2
2019-06-27T07:43:11.259Z,57.3
2019-06-27T07:44:51.104Z,57.6
2019-06-27T07:48:11.634Z,58
2019-06-27T07:49:01.691Z,58.1
2019-06-27T07:56:32.212Z,58.9
2019-06-27T08:01:37.846Z,59.6
2019-06-27T08:13:13.012Z,61.4
2019-06-27T08:16:32.926Z,61.6
2019-06-27T08:22:01.989Z,61.6
2019-06-27T08:22:52.124Z,61.9
2019-06-27T08:23:43.870Z,62.2
2019-06-27T08:24:36.158Z,62.3
2019-06-27T08:26:12.393Z,62.4
2019-06-27T08:27:01.814Z,62.4
2019-06-27T08:27:52.398Z,62.4
2019-06-27T08:28:42.090Z,62.5
2019-06-27T08:29:31.987Z,62.5
2019-06-27T08:30:22.795Z,62.6
2019-06-27T08:31:12.431Z,62.5
2019-06-27T08:32:02.864Z,62.6
2019-06-27T08:33:42.554Z,62.7
2019-06-27T08:34:32.363Z,62.8
2019-06-27T08:35:22.128Z,62.7
2019-06-27T08:36:13.029Z,63
2019-06-27T08:37:02.866Z,63.3
2019-06-27T08:37:52.630Z,63.5
2019-06-27T08:38:43.222Z,63.7
2019-06-27T08:39:33.296Z,63.9
2019-06-27T08:40:22.771Z,64
2019-06-27T08:41:15.425Z,64.1
2019-06-27T08:42:53.257Z,64.3
2019-06-27T08:43:43.585Z,64.3
2019-06-27T08:44:33.353Z,64.3
2019-06-27T08:45:23.802Z,64.4
2019-06-27T08:46:13.469Z,64.4
2019-06-27T08:47:03.852Z,64.5
2019-06-27T08:47:53.867Z,64.6
2019-06-27T08:48:43.664Z,64.7
2019-06-27T08:49:33.739Z,64.9
2019-06-27T08:50:24.337Z,64.7
2019-06-27T08:51:13.658Z,64.9
2019-06-27T08:52:04.268Z,65.2
2019-06-27T08:53:44.036Z,65.5
2019-06-27T08:54:34.379Z,65.6
2019-06-27T08:55:24.211Z,65.6
2019-06-27T08:56:14.207Z,65.7
2019-06-27T08:57:04.569Z,65.8
2019-06-27T08:57:54.614Z,65.8
2019-06-27T08:58:44.730Z,65.8
2019-06-27T09:00:24.530Z,65.9
2019-06-27T09:02:11.232Z,66
2019-06-27T09:03:44.767Z,66.1
2019-06-27T09:04:35.109Z,66.1
2019-06-27T09:05:24.392Z,66.1
2019-06-27T09:06:15.235Z,66.2
2019-06-27T09:12:05.368Z,66.9
2019-06-27T09:14:35.113Z,67.3
2019-06-27T10:04:58.350Z,70.6
2019-06-27T10:05:47.907Z,70.7
2019-06-27T10:06:38.375Z,70.8
2019-06-27T10:08:18.077Z,70.9
2019-06-27T10:09:08.635Z,71.1
2019-06-27T10:09:58.180Z,71.3
2019-06-27T10:10:49.237Z,71.4
2019-06-27T10:11:38.537Z,71.8
2019-06-27T10:14:58.592Z,72.6
2019-06-27T10:15:48.644Z,72.9
2019-06-27T10:16:39.204Z,73.3
2019-06-27T10:17:29.293Z,73.4
2019-06-27T10:18:19.312Z,73.6
2019-06-27T10:19:09.397Z,73.8
2019-06-27T10:19:59.353Z,73.9
2019-06-27T10:20:49.479Z,73.9
2019-06-27T10:21:39.625Z,74
2019-06-27T10:22:29.624Z,74.1
2019-06-27T10:23:19.695Z,74.1
2019-06-27T10:24:09.733Z,74.1
2019-06-27T10:24:59.807Z,74.1
2019-06-27T10:25:49.859Z,74.1
2019-06-27T10:26:39.699Z,74.2
2019-06-27T10:27:29.702Z,74
2019-06-27T10:28:20.081Z,74.1
2019-06-27T10:29:10.121Z,74.4
2019-06-27T10:30:00.409Z,74.6
2019-06-27T10:30:51.349Z,74.8
2019-06-27T10:32:29.816Z,75
2019-06-27T10:33:20.476Z,75.1
2019-06-27T10:34:10.237Z,75.3
2019-06-27T10:35:00.601Z,75.3
2019-06-27T10:35:50.596Z,75.3
2019-06-27T10:36:40.371Z,75.3
2019-06-27T10:37:30.716Z,75.3
2019-06-27T10:38:20.778Z,75.3
2019-06-27T10:39:10.843Z,75.3
2019-06-27T10:40:00.751Z,75.3
2019-06-27T10:41:40.759Z,75.2
2019-06-27T10:42:30.813Z,74.9
2019-06-27T10:43:21.211Z,74.7
2019-06-27T10:47:31.605Z,73.5
2019-06-27T10:49:11.327Z,73.3
2019-06-27T10:52:31.255Z,73.3
2019-06-27T11:33:34.538Z,71.6
2019-06-27T11:36:48.533Z,71.5
2019-06-27T11:47:36.685Z,70.7
2019-06-27T11:59:16.722Z,70
2019-06-27T12:00:06.827Z,70
2019-06-27T12:00:56.602Z,70
2019-06-27T12:04:57.481Z,69.8
2019-06-27T12:05:48.415Z,69.8
2019-06-27T12:06:38.136Z,69.7
2019-06-27T12:07:28.461Z,69.6
2019-06-27T12:08:18.578Z,69.6
2019-06-27T12:09:08.608Z,69.6
2019-06-27T12:09:58.501Z,69.5
2019-06-27T12:10:48.806Z,69.4
2019-06-27T12:11:38.518Z,69.4
2019-06-27T12:12:28.583Z,69.4
2019-06-27T12:13:18.928Z,69.3
2019-06-27T12:14:08.966Z,69.3
2019-06-27T12:14:58.816Z,69.3
2019-06-27T12:15:53.098Z,69.3
2019-06-27T12:17:29.210Z,69.3
2019-06-27T12:18:19.291Z,69.3
2019-06-27T12:19:09.324Z,69.3
2019-06-27T12:19:59.389Z,69.3
2019-06-27T12:20:49.205Z,69.3
2019-06-27T12:21:39.525Z,69.3
2019-06-27T12:22:29.336Z,69.3
2019-06-27T12:23:19.652Z,69.2
2019-06-27T12:24:09.731Z,69.1
2019-06-27T12:24:59.802Z,68.9
2019-06-27T12:25:49.833Z,68.8
2019-06-27T12:26:39.900Z,68.7
2019-06-27T12:27:29.690Z,68.6
2019-06-27T12:28:19.732Z,68.6
2019-06-27T12:29:10.062Z,68.6
2019-06-27T12:29:59.848Z,68.5
2019-06-27T12:30:50.183Z,68.5
2019-06-27T12:31:39.699Z,68.5
2019-06-27T12:32:30.329Z,68.4
2019-06-27T12:33:20.547Z,68.4
2019-06-27T12:34:10.496Z,68.3
2019-06-27T12:35:00.263Z,68.3
2019-06-27T12:35:50.568Z,68.3
2019-06-27T12:36:40.658Z,68.2
2019-06-27T12:37:30.409Z,68.2
2019-06-27T12:38:20.504Z,68.1
2019-06-27T12:39:10.324Z,68.1
2019-06-27T12:40:00.666Z,68.1
2019-06-27T12:41:41.071Z,68
2019-06-27T12:47:31.131Z,67.4
2019-06-27T13:04:25.828Z,65.3
2019-06-27T13:20:59.868Z,63.4
2019-06-27T13:40:06.798Z,61
2019-06-27T13:42:39.935Z,61
2019-06-27T13:50:59.700Z,60.1
2019-06-27T13:55:56.452Z,59.5
2019-06-27T13:56:46.521Z,59.4
2019-06-27T13:57:36.607Z,59.3
2019-06-27T13:59:16.427Z,59.1
2019-06-27T14:00:06.849Z,59.1
2019-06-27T14:01:46.887Z,58.8
2019-06-27T14:02:37.069Z,58.7
2019-06-27T14:05:58.064Z,58.2
2019-06-27T14:06:48.348Z,58.1
2019-06-27T14:07:38.148Z,57.9
2019-06-27T14:08:28.216Z,57.8
2019-06-27T14:09:25.232Z,55.6
2019-06-27T14:10:58.351Z,53.1
2019-06-27T14:11:48.407Z,53.2
2019-06-27T14:12:38.481Z,53.4
2019-06-27T14:13:28.815Z,53.9
2019-06-27T14:14:18.868Z,54.4
2019-06-27T14:15:08.956Z,54.8
2019-06-27T14:15:58.706Z,55.1
2019-06-27T14:16:48.786Z,55.3
2019-06-27T14:17:39.134Z,55.5
2019-06-27T14:18:28.623Z,55.6
2019-06-27T14:19:19.044Z,55.8
2019-06-27T14:20:09.300Z,55.8
2019-06-27T14:20:59.370Z,55.9
2019-06-27T14:21:48.625Z,55.9
2019-06-27T14:22:39.496Z,56.1
2019-06-27T14:23:29.609Z,56.1
2019-06-27T14:24:19.451Z,56.1
2019-06-27T14:25:09.128Z,56.1
2019-06-27T14:25:59.753Z,56.1
2019-06-27T14:26:49.832Z,56.2
2019-06-27T14:27:39.859Z,56.2
2019-06-27T14:28:29.368Z,56.1
2019-06-27T14:29:19.722Z,56.1
2019-06-27T14:30:10.053Z,55.9
2019-06-27T14:30:59.824Z,55.8
2019-06-27T14:31:49.974Z,55.6
2019-06-27T14:32:39.955Z,55.4
2019-06-27T14:33:30.292Z,55.4
2019-06-27T14:34:20.461Z,55.3
2019-06-27T14:35:17.840Z,55.3
2019-06-27T14:36:54.141Z,55.3
2019-06-27T14:38:30.455Z,55.3
2019-06-27T14:39:20.501Z,55.3
2019-06-27T14:40:10.857Z,55.3
2019-06-27T14:41:50.891Z,55.2
2019-06-27T14:42:40.671Z,55.1
2019-06-27T14:43:30.769Z,55
2019-06-27T14:45:11.209Z,54.6
2019-06-27T14:49:20.907Z,53.8
2019-06-27T14:50:11.519Z,53.6
2019-06-27T14:51:51.380Z,53.2
2019-06-27T15:01:10.729Z,51.4
2019-06-27T15:12:58.933Z,49
2019-06-27T15:16:13.617Z,48.2
2019-06-27T15:46:56.449Z,42.3
2019-06-27T15:56:06.464Z,40.8
2019-06-27T15:58:36.650Z,40.3
2019-06-27T16:01:06.810Z,39.9
2019-06-27T16:01:56.843Z,39.8
2019-06-27T16:02:46.715Z,39.6
2019-06-27T16:03:36.500Z,39.5
2019-06-27T16:06:16.258Z,39.1
2019-06-27T16:20:59.365Z,36.6
2019-06-27T16:23:29.530Z,36.3
2019-06-27T16:24:19.591Z,36.2
2019-06-27T16:26:49.875Z,35.8
2019-06-27T16:27:39.821Z,35.7
2019-06-27T16:28:29.601Z,35.6
2019-06-27T16:29:20.010Z,35.6
2019-06-27T16:30:10.166Z,35.4
2019-06-27T16:31:00.074Z,35.4
2019-06-27T16:31:50.124Z,35.4
2019-06-27T16:32:39.925Z,35.3
2019-06-27T16:33:30.261Z,35.2
2019-06-27T16:34:20.405Z,35.1
2019-06-27T16:35:10.384Z,35.1
2019-06-27T16:36:00.458Z,35
2019-06-27T16:36:50.492Z,34.9
2019-06-27T16:37:40.452Z,34.9
2019-06-27T16:38:30.069Z,34.8
2019-06-27T16:39:20.415Z,34.8
2019-06-27T16:40:10.742Z,34.7
2019-06-27T16:41:00.249Z,34.6
2019-06-27T16:41:50.572Z,34.6
2019-06-27T16:42:40.110Z,34.5
2019-06-27T16:43:30.975Z,34.4
2019-06-27T16:44:21.089Z,34.3
2019-06-27T16:45:10.818Z,34.3
2019-06-27T16:46:00.894Z,34.2
2019-06-27T16:46:51.298Z,34.1
2019-06-27T16:47:41.015Z,34
2019-06-27T16:48:30.786Z,33.9
2019-06-27T16:49:21.145Z,33.9
2019-06-27T16:50:11.461Z,33.8
2019-06-27T16:51:01.632Z,33.7
2019-06-27T16:51:51.667Z,33.6
2019-06-27T16:52:41.379Z,33.6
2019-06-27T16:53:31.718Z,33.5
2019-06-27T16:54:21.761Z,33.4
2019-06-27T16:55:11.286Z,33.4
2019-06-27T16:56:01.361Z,33.3
2019-06-27T16:56:51.956Z,33.3
2019-06-27T16:57:41.492Z,33.2
2019-06-27T16:58:31.529Z,33.1
2019-06-27T16:59:22.150Z,33.1
2019-06-27T17:00:12.418Z,33
2019-06-27T17:01:01.755Z,32.9
2019-06-27T17:01:52.357Z,32.9
2019-06-27T17:02:42.376Z,32.8
2019-06-27T17:03:32.256Z,32.7
2019-06-27T17:04:22.230Z,32.6
2019-06-27T17:05:12.575Z,32.6
2019-06-27T17:06:02.846Z,32.5
2019-06-27T17:06:52.697Z,32.4
2019-06-27T17:07:42.811Z,32.4
2019-06-27T17:08:32.543Z,32.3
2019-06-27T17:09:22.605Z,32.3
2019-06-27T17:10:12.681Z,32.2
2019-06-27T17:11:03.077Z,32.1
2019-06-27T17:11:52.788Z,32.1
2019-06-27T17:12:43.195Z,32
2019-06-27T17:13:32.902Z,31.9
2019-06-27T17:14:22.960Z,31.9
2019-06-27T17:15:13.062Z,31.8
2019-06-27T17:16:03.170Z,31.8
2019-06-27T17:16:53.147Z,31.7
2019-06-27T17:17:43.015Z,31.6
2019-06-27T17:18:33.543Z,31.6
2019-06-27T17:19:23.372Z,31.4
2019-06-27T17:20:12.865Z,31.4
2019-06-27T17:21:03.738Z,31.4
2019-06-27T17:21:53.555Z,31.3
2019-06-27T17:23:33.917Z,31.1
2019-06-27T17:25:14.092Z,31
2019-06-27T17:28:37.257Z,30.8
2019-06-27T17:34:23.630Z,30.3
2019-06-27T17:35:14.784Z,30.2
2019-06-27T17:36:59.591Z,30.1
2019-06-27T17:51:09.393Z,28.8
2019-06-27T18:05:58.055Z,27.7
2019-06-27T18:06:47.972Z,27.6
2019-06-27T18:07:38.024Z,27.6
2019-06-27T18:08:28.445Z,27.5
2019-06-27T18:09:17.874Z,27.4
2019-06-27T18:10:08.282Z,27.3
2019-06-27T18:10:57.831Z,27.3
2019-06-27T18:11:48.594Z,27.2
2019-06-27T18:12:38.486Z,27.1
2019-06-27T18:13:28.742Z,27.1
2019-06-27T18:14:18.520Z,27
2019-06-27T18:15:08.579Z,26.9
2019-06-27T18:15:58.077Z,26.8
2019-06-27T18:16:48.405Z,26.8
2019-06-27T18:17:38.762Z,26.7
2019-06-27T18:18:29.071Z,26.6
2019-06-27T18:19:19.188Z,26.5
2019-06-27T18:20:09.236Z,26.5
2019-06-27T18:20:59.286Z,26.4
2019-06-27T18:21:49.536Z,26.3
2019-06-27T18:22:39.132Z,26.3
2019-06-27T18:23:29.471Z,26.2
2019-06-27T18:24:19.265Z,26.1
2019-06-27T18:25:09.034Z,26.1
2019-06-27T18:25:59.697Z,26
2019-06-27T18:26:49.504Z,25.9
2019-06-27T18:27:39.789Z,25.8
2019-06-27T18:28:29.556Z,25.8
2019-06-27T18:29:19.901Z,25.7
2019-06-27T18:30:09.433Z,25.6
2019-06-27T18:31:00.078Z,25.6
2019-06-27T18:31:49.241Z,25.5
2019-06-27T18:32:40.142Z,25.5
2019-06-27T18:33:30.189Z,25.4
2019-06-27T18:34:19.501Z,25.4
2019-06-27T18:35:09.843Z,25.3
2019-06-27T18:36:03.896Z,25.2
2019-06-27T18:37:40.230Z,25.1
2019-06-27T18:38:29.745Z,25.1
2019-06-27T18:39:20.620Z,25
2019-06-27T18:40:10.690Z,24.9
2019-06-27T18:41:00.494Z,24.9
2019-06-27T18:41:50.515Z,24.8
2019-06-27T18:42:40.875Z,24.8
2019-06-27T18:44:21.075Z,24.6
2019-06-27T18:46:00.860Z,24.6
2019-06-27T18:46:51.182Z,24.4
2019-06-27T18:48:31.317Z,24.4
2019-06-27T19:07:47.861Z,23.3
2019-06-27T19:29:27.578Z,22.6
2019-06-27T19:41:58.733Z,22.3
2019-06-27T19:56:06.272Z,22.1
2019-06-27T19:57:46.371Z,22.1
2019-06-27T19:58:36.441Z,22
2019-06-27T19:59:27.493Z,22
2019-06-27T20:00:16.552Z,22
2019-06-27T20:01:06.384Z,22
2019-06-27T20:01:56.456Z,22
2019-06-27T20:03:36.805Z,21.9
2019-06-27T20:04:26.879Z,21.9
2019-06-27T20:05:16.664Z,21.9
2019-06-27T20:06:06.995Z,21.9
2019-06-27T20:06:56.771Z,21.9
2019-06-27T20:07:47.114Z,21.9
2019-06-27T20:08:37.154Z,21.9
2019-06-27T20:09:27.223Z,21.9
2019-06-27T20:10:17.007Z,21.9
2019-06-27T20:11:07.357Z,21.8
2019-06-27T20:11:56.909Z,21.8
2019-06-27T20:12:46.672Z,21.9
2019-06-27T20:13:37.288Z,21.8
2019-06-27T20:14:27.310Z,21.8
2019-06-27T20:15:17.107Z,21.8
2019-06-27T20:16:07.508Z,21.8
2019-06-27T20:16:57.513Z,21.8
2019-06-27T20:17:47.875Z,21.8
2019-06-27T20:18:37.437Z,21.8
2019-06-27T20:19:27.667Z,21.8
2019-06-27T20:20:18.053Z,21.8
2019-06-27T20:21:08.077Z,21.8
2019-06-27T20:21:57.852Z,21.8
2019-06-27T20:22:47.939Z,21.8
2019-06-27T20:23:38.274Z,21.8
2019-06-27T20:24:28.327Z,21.8
2019-06-27T20:25:18.096Z,21.8
2019-06-27T20:26:08.457Z,21.8
2019-06-27T20:26:58.494Z,21.8
2019-06-27T20:27:48.327Z,21.8
2019-06-27T20:28:38.077Z,21.8
2019-06-27T20:29:31.727Z,21.8
2019-06-27T20:31:08.549Z,21.8
2019-06-27T20:31:58.604Z,21.8
2019-06-27T20:32:48.981Z,21.7
2019-06-27T20:33:39.004Z,21.7
2019-06-27T20:34:28.509Z,21.7
2019-06-27T20:35:19.161Z,21.7
2019-06-27T20:36:09.199Z,21.6
2019-06-27T20:36:58.970Z,21.6
2019-06-27T20:37:49.398Z,21.6
2019-06-27T20:38:39.098Z,21.6
2019-06-27T20:39:29.486Z,21.6
2019-06-27T20:40:19.497Z,21.6
2019-06-27T20:41:09.546Z,21.6
2019-06-27T20:41:59.614Z,21.6
2019-06-27T20:42:49.111Z,21.5
2019-06-27T20:43:39.458Z,21.5
2019-06-27T20:44:29.807Z,21.5
2019-06-27T20:45:19.853Z,21.4
2019-06-27T20:46:09.913Z,21.4
2019-06-27T20:47:00.009Z,21.4
2019-06-27T20:47:50.036Z,21.4
2019-06-27T20:48:40.083Z,21.4
2019-06-27T20:49:29.623Z,21.4
2019-06-27T20:50:19.684Z,21.4
2019-06-27T20:51:10.265Z,21.3
2019-06-27T20:52:00.351Z,21.3
2019-06-27T20:53:40.458Z,21.3
2019-06-27T20:54:30.280Z,21.3
2019-06-27T20:55:20.593Z,21.3
2019-06-27T20:56:10.643Z,21.3
2019-06-27T20:57:00.183Z,21.2
2019-06-27T20:57:50.493Z,21.2
2019-06-27T20:58:40.010Z,21.2
2019-06-27T20:59:30.071Z,21.2
2019-06-27T21:02:51.119Z,21.1
2019-06-27T21:04:31.253Z,21.1
2019-06-27T21:08:53.283Z,21
2019-06-27T21:17:52.236Z,20.8
2019-06-27T21:23:42.214Z,20.7
2019-06-27T21:24:32.234Z,20.6
2019-06-27T21:25:22.597Z,20.6
2019-06-27T21:26:12.358Z,20.6
2019-06-27T22:12:56.321Z,19.4
2019-06-27T22:13:46.311Z,19.4
2019-06-27T22:16:16.501Z,19.4
2019-06-27T22:17:06.291Z,19.4
2019-06-27T22:17:56.608Z,19.3
2019-06-27T22:18:46.663Z,19.3
2019-06-27T22:19:36.448Z,19.3
2019-06-27T22:20:26.825Z,19.3
2019-06-27T22:21:16.861Z,19.3
2019-06-27T22:22:06.657Z,19.3
2019-06-27T22:22:56.714Z,19.3
2019-06-27T22:23:47.053Z,19.3
2019-06-27T22:24:37.108Z,19.3
2019-06-27T22:25:42.675Z,19.3
2019-06-27T22:27:07.030Z,19.3
2019-06-27T22:27:57.088Z,19.3
2019-06-27T22:28:47.438Z,19.3
2019-06-27T22:29:37.473Z,19.3
2019-06-27T22:30:27.001Z,19.3
2019-06-27T22:31:17.593Z,19.3
2019-06-27T22:32:07.669Z,19.3
2019-06-27T22:32:57.705Z,19.3
2019-06-27T22:33:47.217Z,19.2
2019-06-27T22:34:37.570Z,19.3
2019-06-27T22:35:27.642Z,19.3
2019-06-27T22:36:17.957Z,19.3
2019-06-27T22:37:07.505Z,19.3
2019-06-27T22:37:58.136Z,19.3
2019-06-27T22:38:47.577Z,19.3
2019-06-27T22:39:42.645Z,19.3
2019-06-27T22:41:18.319Z,19.3
2019-06-27T22:42:08.426Z,19.3
2019-06-27T22:42:58.712Z,19.3
2019-06-27T22:43:48.554Z,19.3
2019-06-27T22:44:38.569Z,19.3
2019-06-27T22:45:28.641Z,19.3
2019-06-27T22:46:18.684Z,19.3
2019-06-27T22:47:07.929Z,19.3
2019-06-27T22:47:58.832Z,19.3
2019-06-27T22:48:48.945Z,19.3
2019-06-27T22:49:38.426Z,19.3
2019-06-27T22:50:28.439Z,19.3
2019-06-27T22:51:18.509Z,19.4
2019-06-27T22:52:08.848Z,19.4
2019-06-27T22:52:59.184Z,19.4
2019-06-27T22:53:48.791Z,19.4
2019-06-27T22:54:39.302Z,19.4
2019-06-27T22:55:28.816Z,19.4
2019-06-27T22:56:19.428Z,19.4
2019-06-27T22:57:09.216Z,19.4
2019-06-27T22:57:59.281Z,19.4
2019-06-27T22:58:49.611Z,19.4
2019-06-27T22:59:39.661Z,19.4
2019-06-27T23:00:29.731Z,19.5
2019-06-27T23:01:19.785Z,19.5
2019-06-27T23:02:09.863Z,19.5
2019-06-27T23:02:59.636Z,19.5
2019-06-27T23:03:49.276Z,19.6
2019-06-27T23:04:40.036Z,19.6
2019-06-27T23:05:30.185Z,19.6
2019-06-27T23:06:19.318Z,19.6
2019-06-27T23:07:09.951Z,19.6
2019-06-27T23:08:00.276Z,19.6
2019-06-27T23:08:50.338Z,19.6
2019-06-27T23:09:58.195Z,19.6
2019-06-27T23:11:20.569Z,19.6
2019-06-27T23:13:00.672Z,19.6
2019-06-27T23:13:50.775Z,19.6
2019-06-27T23:14:40.486Z,19.6
2019-06-27T23:15:30.352Z,19.6
2019-06-27T23:16:20.595Z,19.6
2019-06-27T23:17:10.937Z,19.7
2019-06-27T23:18:51.132Z,19.7
2019-06-27T23:20:30.936Z,19.7
2019-06-27T23:21:21.251Z,19.7
2019-06-27T23:25:31.037Z,19.7
2019-06-27T23:26:21.335Z,19.7
